Norman Ranch, South Dakota
Current Conditions -  °F | °C
As of 2:53 PM on Saturday 22 Nov 2014 (Local Time) from KPIR Reporting Station
Clear Clear  
Wind Chill: 44°   Ceiling: Unl
Heat Index: 44°   Visibility: 10mi
Dew Point: 33°   Wind: 0mph
Humidity: 65%   Direction: NA
Pressure: 29.36"   Gusts: NA
Location:  44.268°N, 100.627°W
Report Text: KPIR 222053Z AUTO 00000KT 10SM CLR 07/01 A2936 RMK AO2 SLP952 T00670006 56030
Loading
Personal Weather Stations






























Interactive Weather Map New forecast layout! Learn more

10-Day Weather Forecast

Advertisements
Track Severe Weather on mobile